createdAt,value
2023-04-02T00:01:06.278Z,101113.53
2023-04-02T00:03:45.657Z,101116.34
2023-04-02T00:06:41.075Z,101123.63
2023-04-02T00:09:18.516Z,101131.59
2023-04-02T00:11:51.283Z,101122.75
2023-04-02T00:14:31.441Z,101119.56
2023-04-02T00:17:05.476Z,101127.81
2023-04-02T00:19:52.875Z,101121.09
2023-04-02T00:22:28.304Z,101125.94
2023-04-02T00:24:59.196Z,101135.78
2023-04-02T00:27:29.282Z,101130.34
2023-04-02T00:30:03.235Z,101137.09
2023-04-02T00:32:35.153Z,101134.72
2023-04-02T00:35:12.541Z,101130.88
2023-04-02T00:37:43.411Z,101126.28
2023-04-02T00:40:22.712Z,101129.94
2023-04-02T00:42:54.903Z,101129.97
2023-04-02T00:45:27.274Z,101134.03
2023-04-02T00:47:58.957Z,101126.84
2023-04-02T00:50:41.651Z,101130.22
2023-04-02T00:53:17.225Z,101124.69
2023-04-02T00:55:47.937Z,101129.69
2023-04-02T00:58:34.407Z,101128.34
2023-04-02T01:01:06.136Z,101129.38
2023-04-02T01:03:39.256Z,101129.38
2023-04-02T01:06:19.961Z,101141.44
2023-04-02T01:09:25.645Z,101140.28
2023-04-02T01:11:58.623Z,101134.53
2023-04-02T01:15:01.820Z,101134.28
2023-04-02T01:17:43.911Z,101134.53
2023-04-02T01:20:34.573Z,101134.31
2023-04-02T01:23:20.396Z,101132.34
2023-04-02T01:26:13.321Z,101124.38
2023-04-02T01:28:58.877Z,101132.34
2023-04-02T01:31:29.967Z,101129.00
2023-04-02T01:34:01.784Z,101125.63
2023-04-02T01:36:49.721Z,101122.66
2023-04-02T01:39:37.240Z,101133.63
2023-04-02T01:42:59.567Z,101131.97
2023-04-02T01:45:30.610Z,101134.91
2023-04-02T01:48:00.891Z,101132.50
2023-04-02T01:50:38.121Z,101129.63
2023-04-02T01:53:13.581Z,101128.19
2023-04-02T01:55:54.410Z,101138.50
2023-04-02T01:58:27.256Z,101130.34
2023-04-02T02:01:20.183Z,101126.00
2023-04-02T02:03:54.684Z,101129.19
2023-04-02T02:06:25.952Z,101120.69
2023-04-02T02:08:58.696Z,101121.44
2023-04-02T02:11:31.736Z,101123.31
2023-04-02T02:14:07.705Z,101125.41
2023-04-02T02:16:43.080Z,101124.25
2023-04-02T02:19:34.017Z,101126.66
2023-04-02T02:22:31.878Z,101136.78
2023-04-02T02:25:06.523Z,101129.09
2023-04-02T02:28:14.069Z,101136.28
2023-04-02T02:30:47.023Z,101131.16
2023-04-02T02:33:28.425Z,101129.66
2023-04-02T02:36:28.437Z,101122.59
2023-04-02T02:39:08.735Z,101126.69
2023-04-02T02:41:53.634Z,101131.66
2023-04-02T02:44:51.965Z,101127.56
2023-04-02T02:47:29.631Z,101132.69
2023-04-02T02:50:11.546Z,101137.50
2023-04-02T02:52:45.882Z,101127.38
2023-04-02T02:55:20.650Z,101131.75
2023-04-02T02:58:10.108Z,101132.69
2023-04-02T03:00:51.883Z,101135.59
2023-04-02T03:03:25.993Z,101140.63
2023-04-02T03:06:08.691Z,101140.63
2023-04-02T03:08:46.610Z,101131.75
2023-04-02T03:11:51.985Z,101127.38
2023-04-02T03:14:41.797Z,101127.66
2023-04-02T03:17:36.142Z,101126.19
2023-04-02T03:20:21.258Z,101134.13
2023-04-02T03:23:02.004Z,101127.38
2023-04-02T03:26:18.392Z,101131.94
2023-04-02T03:28:57.459Z,101137.50
2023-04-02T03:31:59.309Z,101127.38
2023-04-02T03:34:43.108Z,101133.88
2023-04-02T03:37:17.458Z,101125.72
2023-04-02T03:39:59.153Z,101125.47
2023-04-02T03:42:38.712Z,101124.53
2023-04-02T03:45:28.668Z,101134.38
2023-04-02T03:48:22.698Z,101138.94
2023-04-02T03:51:04.739Z,101131.72
2023-04-02T03:53:36.021Z,101123.75
2023-04-02T03:56:08.798Z,101119.19
2023-04-02T03:58:48.406Z,101121.09
2023-04-02T04:01:35.596Z,101122.56
2023-04-02T04:04:15.792Z,101123.53
2023-04-02T04:06:51.227Z,101120.41
2023-04-02T04:09:36.665Z,101110.53
2023-04-02T04:12:23.699Z,101115.31
2023-04-02T04:15:16.837Z,101116.31
2023-04-02T04:18:20.285Z,101114.59
2023-04-02T04:21:03.287Z,101108.59
2023-04-02T04:23:42.564Z,101109.53
2023-04-02T04:26:14.294Z,101111.25
2023-04-02T04:29:10.746Z,101110.28
2023-04-02T04:31:50.587Z,101111.72
2023-04-02T04:34:54.620Z,101103.06
2023-04-02T04:37:37.297Z,101098.53
2023-04-02T04:40:24.052Z,101090.81
2023-04-02T04:43:04.606Z,101089.59
2023-04-02T04:45:58.096Z,101095.63
2023-04-02T04:49:14.259Z,101089.63
2023-04-02T04:51:53.225Z,101091.53
2023-04-02T04:54:29.037Z,101089.84
2023-04-02T04:57:04.163Z,101097.53
2023-04-02T04:59:44.329Z,101089.84
2023-04-02T05:02:27.304Z,101080.47
2023-04-02T05:04:58.859Z,101084.81
2023-04-02T05:07:37.792Z,101085.50
2023-04-02T05:10:36.729Z,101091.06
2023-04-02T05:13:17.606Z,101090.09
2023-04-02T05:16:18.011Z,101086.47
2023-04-02T05:19:00.431Z,101086.47
2023-04-02T05:21:45.418Z,101081.41
2023-04-02T05:24:33.289Z,101087.69
2023-04-02T05:27:26.020Z,101082.59
2023-04-02T05:30:00.861Z,101069.88
2023-04-02T05:32:36.873Z,101068.91
2023-04-02T05:35:07.934Z,101066.50
2023-04-02T05:37:40.608Z,101067.22
2023-04-02T05:40:41.580Z,101058.34
2023-04-02T05:43:17.462Z,101057.84
2023-04-02T05:45:55.573Z,101058.09
2023-04-02T05:48:40.556Z,101053.97
2023-04-02T05:51:18.792Z,101053.97
2023-04-02T05:53:54.839Z,101054.25
2023-04-02T05:56:43.694Z,101053.78
2023-04-02T05:59:26.855Z,101056.66
2023-04-02T06:02:09.320Z,101060.00
2023-04-02T06:05:14.393Z,101041.75
2023-04-02T06:08:10.464Z,101051.81
2023-04-02T06:10:57.171Z,101059.53
2023-04-02T06:13:29.653Z,101047.22
2023-04-02T06:16:00.256Z,101038.75
2023-04-02T06:18:38.345Z,101046.03
2023-04-02T06:21:08.756Z,101041.44
2023-04-02T06:23:44.867Z,101036.03
2023-04-02T06:26:28.301Z,101033.88
2023-04-02T06:29:03.636Z,101033.88
2023-04-02T06:31:52.467Z,101042.00
2023-04-02T06:34:27.076Z,101043.22
2023-04-02T06:37:24.650Z,101040.59
2023-04-02T06:40:02.430Z,101040.13
2023-04-02T06:42:37.414Z,101040.59
2023-04-02T06:45:35.480Z,101033.16
2023-04-02T06:48:21.130Z,101031.50
2023-04-02T06:51:09.515Z,101033.63
2023-04-02T06:53:50.830Z,101030.03
2023-04-02T06:56:43.488Z,101035.66
2023-04-02T06:59:18.224Z,101028.47
2023-04-02T07:01:53.932Z,101038.13
2023-04-02T07:04:25.097Z,101032.78
2023-04-02T07:06:56.910Z,101034.97
2023-04-02T07:09:30.517Z,101033.09
2023-04-02T07:12:03.017Z,101031.38
2023-04-02T07:14:33.957Z,101033.06
2023-04-02T07:17:04.734Z,101035.25
2023-04-02T07:19:34.761Z,101029.47
2023-04-02T07:22:04.541Z,101039.81
2023-04-02T07:24:40.117Z,101038.56
2023-04-02T07:27:13.262Z,101055.44
2023-04-02T07:29:44.833Z,101051.31
2023-04-02T07:32:15.631Z,101045.00
2023-04-02T07:34:46.074Z,101044.06
2023-04-02T07:37:16.738Z,101045.28
2023-04-02T07:39:47.392Z,101053.94
2023-04-02T07:42:17.386Z,101063.56
2023-04-02T07:44:47.813Z,101057.50
2023-04-02T07:47:17.829Z,101057.28
2023-04-02T07:49:48.250Z,101070.50
2023-04-02T07:52:18.290Z,101062.56
2023-04-02T07:54:48.916Z,101063.03
2023-04-02T07:57:19.040Z,101071.00
2023-04-02T07:59:49.581Z,101083.06
2023-04-02T08:02:23.839Z,101084.94
2023-04-02T08:04:54.515Z,101086.63
2023-04-02T08:07:24.510Z,101085.88
2023-04-02T08:09:54.922Z,101093.59
2023-04-02T08:12:24.929Z,101087.81
2023-04-02T08:14:55.548Z,101092.63
2023-04-02T08:17:25.657Z,101093.34
2023-04-02T08:19:57.311Z,101083.47
2023-04-02T08:22:28.736Z,101081.78
2023-04-02T08:24:59.227Z,101093.81
2023-04-02T08:27:29.261Z,101092.59
2023-04-02T08:30:00.014Z,101092.13
2023-04-02T08:32:30.234Z,101092.63
2023-04-02T08:35:00.711Z,101104.75
2023-04-02T08:37:30.740Z,101105.16
2023-04-02T08:40:01.174Z,101102.50
2023-04-02T08:42:42.478Z,101109.72
2023-04-02T08:45:25.746Z,101115.28
2023-04-02T08:47:58.694Z,101123.78
2023-04-02T08:50:36.263Z,101122.81
2023-04-02T08:53:19.990Z,101121.63
2023-04-02T08:56:09.620Z,101130.47
2023-04-02T08:58:52.374Z,101134.56
2023-04-02T09:01:35.922Z,101131.91
2023-04-02T09:04:15.623Z,101136.78
2023-04-02T09:06:47.676Z,101139.91
2023-04-02T09:09:18.690Z,101141.63
2023-04-02T09:12:01.926Z,101141.59
2023-04-02T09:14:46.372Z,101151.00
2023-04-02T09:17:21.333Z,101150.03
2023-04-02T09:19:59.318Z,101148.56
2023-04-02T09:22:32.995Z,101153.38
2023-04-02T09:25:13.282Z,101149.25
2023-04-02T09:27:43.729Z,101150.94
2023-04-02T09:30:22.784Z,101142.97
2023-04-02T09:32:58.106Z,101143.91
2023-04-02T09:35:33.522Z,101152.56
2023-04-02T09:38:35.604Z,101145.63
2023-04-02T09:41:20.082Z,101151.53
2023-04-02T09:43:50.533Z,101156.38
2023-04-02T09:46:27.408Z,101157.16
2023-04-02T09:49:02.766Z,101156.97
2023-04-02T09:51:37.624Z,101160.31
2023-04-02T09:54:17.572Z,101160.78
2023-04-02T09:57:06.956Z,101162.22
2023-04-02T09:59:38.682Z,101165.38
2023-04-02T10:02:27.820Z,101165.59
2023-04-02T10:05:04.770Z,101169.94
2023-04-02T10:07:47.075Z,101171.44
2023-04-02T10:10:23.948Z,101186.81
2023-04-02T10:13:10.747Z,101186.38
2023-04-02T10:15:46.632Z,101198.88
2023-04-02T10:18:47.770Z,101201.69
2023-04-02T10:21:26.433Z,101198.66
2023-04-02T10:24:00.316Z,101211.31
2023-04-02T10:26:58.017Z,101212.56
2023-04-02T10:29:50.276Z,101208.28
2023-04-02T10:32:26.700Z,101209.44
2023-04-02T10:35:03.585Z,101215.47
2023-04-02T10:37:48.964Z,101229.00
2023-04-02T10:40:33.960Z,101223.06
2023-04-02T10:43:19.720Z,101223.53
2023-04-02T10:46:10.016Z,101230.91
2023-04-02T10:48:40.008Z,101229.91
2023-04-02T10:51:29.922Z,101241.38
2023-04-02T10:54:30.107Z,101243.50
2023-04-02T10:57:26.240Z,101246.69
2023-04-02T11:00:09.043Z,101253.31
2023-04-02T11:03:08.219Z,101257.28
2023-04-02T11:05:39.245Z,101257.25
2023-04-02T11:08:35.927Z,101273.56
2023-04-02T11:11:11.857Z,101275.69
2023-04-02T11:13:50.289Z,101279.50
2023-04-02T11:16:20.815Z,101284.97
2023-04-02T11:19:11.959Z,101286.25
2023-04-02T11:21:57.863Z,101290.56
2023-04-02T11:24:35.271Z,101295.38
2023-04-02T11:27:05.279Z,101301.94
2023-04-02T11:29:55.261Z,101300.28
2023-04-02T11:32:26.458Z,101310.66
2023-04-02T11:35:06.419Z,101301.75
2023-04-02T11:37:47.785Z,101315.34
2023-04-02T11:40:18.422Z,101317.53
2023-04-02T11:42:53.845Z,101324.41
2023-04-02T11:45:30.291Z,101329.16
2023-04-02T11:48:09.261Z,101333.44
2023-04-02T11:50:47.612Z,101328.53
2023-04-02T11:53:22.226Z,101328.16
2023-04-02T11:56:24.948Z,101331.28
2023-04-02T11:59:12.820Z,101333.28
2023-04-02T12:02:04.541Z,101343.28
2023-04-02T12:04:37.480Z,101326.09
2023-04-02T12:07:35.897Z,101329.84
2023-04-02T12:10:18.588Z,101334.78
2023-04-02T12:12:50.066Z,101327.69
2023-04-02T12:15:37.701Z,101331.91
2023-04-02T12:18:19.022Z,101322.13
2023-04-02T12:20:54.513Z,101327.25
2023-04-02T12:23:30.306Z,101321.00
2023-04-02T12:26:02.695Z,101322.63
2023-04-02T12:28:34.978Z,101320.31
2023-04-02T12:31:10.127Z,101317.63
2023-04-02T12:33:42.284Z,101321.53
2023-04-02T12:36:17.895Z,101322.50
2023-04-02T12:38:57.233Z,101325.34
2023-04-02T12:41:33.406Z,101326.78
2023-04-02T12:44:13.859Z,101331.84
2023-04-02T12:46:45.141Z,101325.91
2023-04-02T12:49:27.136Z,101325.53
2023-04-02T12:51:58.909Z,101328.47
2023-04-02T12:54:30.084Z,101319.03
2023-04-02T12:57:23.352Z,101311.06
2023-04-02T12:59:57.897Z,101312.69
2023-04-02T13:02:31.317Z,101311.78
2023-04-02T13:05:03.473Z,101311.47
2023-04-02T13:07:35.122Z,101315.38
2023-04-02T13:10:29.270Z,101312.84
2023-04-02T13:13:02.064Z,101299.50
2023-04-02T13:15:35.513Z,101301.25
2023-04-02T13:18:20.298Z,101304.19
2023-04-02T13:21:05.260Z,101297.41
2023-04-02T13:23:38.303Z,101291.94
2023-04-02T13:26:29.636Z,101291.94
2023-04-02T13:29:03.816Z,101292.53
2023-04-02T13:31:35.365Z,101289.91
2023-04-02T13:34:06.184Z,101296.97
2023-04-02T13:36:36.751Z,101285.13
2023-04-02T13:39:07.725Z,101282.22
2023-04-02T13:41:58.609Z,101286.03
2023-04-02T13:44:41.373Z,101280.09
2023-04-02T13:47:16.599Z,101280.00
2023-04-02T13:49:46.726Z,101283.00
2023-04-02T13:52:18.387Z,101267.66
2023-04-02T13:54:55.470Z,101277.78
2023-04-02T13:57:25.989Z,101277.56
2023-04-02T13:59:55.998Z,101266.69
2023-04-02T14:02:27.527Z,101258.75
2023-04-02T14:05:18.846Z,101258.59
2023-04-02T14:07:58.266Z,101255.28
2023-04-02T14:10:31.126Z,101260.91
2023-04-02T14:13:33.285Z,101262.38
2023-04-02T14:16:29.139Z,101248.97
2023-04-02T14:19:02.454Z,101255.19
2023-04-02T14:21:41.052Z,101242.53
2023-04-02T14:24:18.377Z,101247.34
2023-04-02T14:27:18.293Z,101243.66
2023-04-02T14:30:03.396Z,101236.63
2023-04-02T14:32:45.235Z,101231.06
2023-04-02T14:35:36.914Z,101229.81
2023-04-02T14:38:36.939Z,101224.19
2023-04-02T14:41:11.835Z,101217.81
2023-04-02T14:43:54.484Z,101226.53
2023-04-02T14:46:30.018Z,101212.34
2023-04-02T14:49:23.722Z,101217.22
2023-04-02T14:52:12.450Z,101217.63
2023-04-02T14:55:11.503Z,101213.78
2023-04-02T14:57:52.980Z,101214.00
2023-04-02T15:00:44.354Z,101209.88
2023-04-02T15:03:26.907Z,101200.63
2023-04-02T15:06:01.776Z,101194.75
2023-04-02T15:08:36.345Z,101188.59
2023-04-02T15:11:27.637Z,101182.09
2023-04-02T15:14:00.424Z,101180.38
2023-04-02T15:16:30.485Z,101185.66
2023-04-02T15:19:02.593Z,101175.03
2023-04-02T15:21:46.489Z,101180.06
2023-04-02T15:24:57.443Z,101165.03
2023-04-02T15:27:48.940Z,101164.78
2023-04-02T15:30:29.060Z,101164.69
2023-04-02T15:33:31.543Z,101152.06
2023-04-02T15:36:30.698Z,101145.72
2023-04-02T15:39:07.487Z,101146.25
2023-04-02T15:42:07.174Z,101142.09
2023-04-02T15:44:43.020Z,101134.34
2023-04-02T15:47:53.840Z,101133.09
2023-04-02T15:50:32.687Z,101130.06
2023-04-02T15:53:26.297Z,101130.69
2023-04-02T15:56:26.429Z,101132.00
2023-04-02T15:59:05.862Z,101119.91
2023-04-02T16:01:55.817Z,101110.53
2023-04-02T16:04:39.006Z,101105.84
2023-04-02T16:07:26.658Z,101096.94
2023-04-02T16:10:15.304Z,101101.19
2023-04-02T16:12:45.818Z,101090.03
2023-04-02T16:15:18.920Z,101092.88
2023-04-02T16:17:56.377Z,101087.75
2023-04-02T16:20:34.224Z,101084.63
2023-04-02T16:23:13.415Z,101082.16
2023-04-02T16:26:01.679Z,101081.13
2023-04-02T16:29:01.307Z,101077.16
2023-04-02T16:31:35.452Z,101069.97
2023-04-02T16:34:06.585Z,101060.56
2023-04-02T16:36:58.778Z,101061.94
2023-04-02T16:40:01.791Z,101048.75
2023-04-02T16:42:51.414Z,101044.59
2023-04-02T16:45:30.119Z,101041.84
2023-04-02T16:48:28.548Z,101036.75
2023-04-02T16:51:27.735Z,101031.97
2023-04-02T16:54:51.701Z,101029.06
2023-04-02T16:57:36.124Z,101027.94
2023-04-02T17:00:19.077Z,101027.44
2023-04-02T17:03:08.381Z,101022.47
2023-04-02T17:06:18.176Z,101010.47
2023-04-02T17:09:12.825Z,101005.53
2023-04-02T17:11:49.307Z,101006.22
2023-04-02T17:14:37.937Z,101004.53
2023-04-02T17:17:15.844Z,101012.09
2023-04-02T17:19:46.799Z,100994.34
2023-04-02T17:22:21.898Z,100991.41
2023-04-02T17:25:04.532Z,100982.75
2023-04-02T17:27:46.790Z,100970.25
2023-04-02T17:30:39.963Z,100969.25
2023-04-02T17:33:19.557Z,100963.41
2023-04-02T17:36:16.662Z,100969.31
2023-04-02T17:39:11.701Z,100970.22
2023-04-02T17:41:59.394Z,100963.13
2023-04-02T17:44:48.112Z,100959.88
2023-04-02T17:47:42.560Z,100952.47
2023-04-02T17:50:31.117Z,100953.47
2023-04-02T17:53:16.669Z,100953.34
2023-04-02T17:56:11.121Z,100944.44
2023-04-02T17:58:44.165Z,100945.47
2023-04-02T18:01:30.209Z,100940.91
2023-04-02T18:04:16.897Z,100945.22
2023-04-02T18:07:06.581Z,100943.72
2023-04-02T18:10:13.265Z,100954.91
2023-04-02T18:13:01.998Z,100949.41
2023-04-02T18:15:50.443Z,100947.53
2023-04-02T18:18:45.124Z,100942.75
2023-04-02T18:21:23.424Z,100937.50
2023-04-02T18:24:24.687Z,100934.50
2023-04-02T18:27:02.541Z,100941.09
2023-04-02T18:30:19.650Z,100936.91
2023-04-02T18:33:26.513Z,100930.66
2023-04-02T18:36:44.356Z,100922.22
2023-04-02T18:39:35.952Z,100916.84
2023-04-02T18:42:30.963Z,100923.59
2023-04-02T18:45:13.565Z,100921.94
2023-04-02T18:48:07.387Z,100924.59
2023-04-02T18:50:41.233Z,100915.91
2023-04-02T18:53:18.719Z,100911.06
2023-04-02T18:56:12.460Z,100913.56
2023-04-02T18:59:03.121Z,100913.72
2023-04-02T19:04:32.257Z,100917.88
2023-04-02T19:07:07.566Z,100920.50
2023-04-02T19:09:41.805Z,100910.91
2023-04-02T19:12:20.850Z,100908.41
2023-04-02T19:14:52.745Z,100916.06
2023-04-02T19:17:39.046Z,100920.31
2023-04-02T19:20:18.194Z,100909.75
2023-04-02T19:23:03.282Z,100915.03
2023-04-02T19:25:58.079Z,100917.50
2023-04-02T19:28:40.094Z,100916.97
2023-04-02T19:31:25.304Z,100919.78
2023-04-02T19:34:15.545Z,100918.38
2023-04-02T19:36:49.886Z,100916.28
2023-04-02T19:40:12.961Z,100911.09
2023-04-02T19:42:53.319Z,100909.03
2023-04-02T19:45:31.324Z,100916.72
2023-04-02T19:48:07.977Z,100914.59
2023-04-02T19:50:38.328Z,100908.31
2023-04-02T19:53:09.579Z,100922.53
2023-04-02T19:55:39.696Z,100916.09
2023-04-02T19:58:24.910Z,100912.72
2023-04-02T20:00:55.525Z,100902.13
2023-04-02T20:03:26.152Z,100902.84
2023-04-02T20:05:58.109Z,100908.31
2023-04-02T20:08:29.649Z,100912.03
2023-04-02T20:10:59.914Z,100913.81
2023-04-02T20:13:30.774Z,100909.84
2023-04-02T20:16:05.843Z,100905.19
2023-04-02T20:18:38.207Z,100912.44
2023-04-02T20:21:09.080Z,100909.31
2023-04-02T20:23:39.781Z,100911.13
2023-04-02T20:26:10.494Z,100919.41
2023-04-02T20:28:41.198Z,100917.06
2023-04-02T20:31:17.386Z,100918.16
2023-04-02T20:33:48.930Z,100922.44
2023-04-02T20:36:19.321Z,100927.22
2023-04-02T20:38:52.060Z,100921.75
2023-04-02T20:41:23.197Z,100930.94
2023-04-02T20:43:53.921Z,100923.38
2023-04-02T20:46:24.160Z,100919.00
2023-04-02T20:48:54.699Z,100924.72
2023-04-02T20:51:24.772Z,100923.31
2023-04-02T20:53:55.576Z,100925.09
2023-04-02T20:56:26.038Z,100938.66
2023-04-02T20:58:56.540Z,100932.72
2023-04-02T21:01:29.133Z,100938.53
2023-04-02T21:04:04.903Z,100936.47
2023-04-02T21:06:38.330Z,100935.50
2023-04-02T21:09:13.994Z,100942.09
2023-04-02T21:11:45.019Z,100939.84
2023-04-02T21:14:15.568Z,100945.56
2023-04-02T21:16:45.748Z,100938.84
2023-04-02T21:19:16.449Z,100941.19
2023-04-02T21:21:46.590Z,100944.81
2023-04-02T21:24:17.008Z,100948.00
2023-04-02T21:26:47.697Z,100951.25
2023-04-02T21:29:18.584Z,100956.22
2023-04-02T21:31:48.641Z,100954.59
2023-04-02T21:34:20.220Z,100957.81
2023-04-02T21:36:52.143Z,100962.81
2023-04-02T21:39:24.891Z,100952.97
2023-04-02T21:41:55.963Z,100961.66
2023-04-02T21:44:26.946Z,100948.75
2023-04-02T21:46:57.327Z,100952.13
2023-04-02T21:49:29.210Z,100956.59
2023-04-02T21:51:59.301Z,100954.94
2023-04-02T21:54:30.675Z,100965.06
2023-04-02T21:57:00.954Z,100967.66
2023-04-02T21:59:31.505Z,100967.19
2023-04-02T22:02:01.827Z,100970.78
2023-04-02T22:04:34.434Z,100975.78
2023-04-02T22:07:04.586Z,100977.28
2023-04-02T22:09:35.026Z,100977.69
2023-04-02T22:12:07.567Z,100984.81
2023-04-02T22:14:40.921Z,100984.94
2023-04-02T22:17:10.989Z,100992.28
2023-04-02T22:19:41.519Z,100993.50
2023-04-02T22:22:11.527Z,100992.94
2023-04-02T22:24:41.471Z,101002.97
2023-04-02T22:27:12.246Z,101004.88
2023-04-02T22:29:42.299Z,101006.44
2023-04-02T22:32:12.724Z,101014.88
2023-04-02T22:34:46.614Z,101007.44
2023-04-02T22:37:17.238Z,101012.56
2023-04-02T22:39:48.157Z,101014.91
2023-04-02T22:42:19.584Z,101022.28
2023-04-02T22:44:50.190Z,101020.53
2023-04-02T22:47:20.811Z,101023.09
2023-04-02T22:49:50.831Z,101027.91
2023-04-02T22:52:21.429Z,101027.19
2023-04-02T22:54:51.473Z,101033.34
2023-04-02T22:57:22.627Z,101031.06
2023-04-02T22:59:52.677Z,101030.97
2023-04-02T23:02:23.210Z,101035.78
2023-04-02T23:04:53.310Z,101036.69
2023-04-02T23:07:24.789Z,101043.81
2023-04-02T23:09:56.085Z,101044.72
2023-04-02T23:12:26.882Z,101058.22
2023-04-02T23:14:59.163Z,101059.22
2023-04-02T23:17:29.934Z,101054.03
2023-04-02T23:20:00.015Z,101060.16
2023-04-02T23:22:30.509Z,101054.44
2023-04-02T23:25:00.610Z,101057.66
2023-04-02T23:27:30.421Z,101054.28
2023-04-02T23:30:01.205Z,101063.75
2023-04-02T23:32:31.480Z,101063.56
2023-04-02T23:35:01.904Z,101060.06
2023-04-02T23:37:32.510Z,101061.09
2023-04-02T23:40:03.013Z,101071.41
2023-04-02T23:42:33.174Z,101074.09
2023-04-02T23:45:03.600Z,101074.88
2023-04-02T23:47:33.436Z,101077.31
2023-04-02T23:50:03.859Z,101075.38
2023-04-02T23:52:34.012Z,101076.53
2023-04-02T23:55:04.831Z,101064.69
2023-04-02T23:57:34.889Z,101072.28
